Startpagina
METAR-TAF:

METAR-TAF

Vliegvelden :

Annecy, Frankrijk

breedte: 45-55-45N, lengte: 006-05-56E, hoogte: 463 m

Actueel weer

Dit bericht is 12 minuten geleden gemaakt, om 12:30 UTC
Wind 4 kt uit variabele richting
Temperatuur 22°C
Vochtigheid 41%
Druk 1016 hPa
Zicht 10 km of meer
geen wolken onder 1500 m en geen cumulonimbus

METAR: LFLP 301230Z AUTO VRB04KT CAVOK 22/08 Q1016

Tijdstip: 14:42 (12:42 UTC)


TAF: ontbreekt

Waarnemingen en weersverwachtingen van meer dan 4000 vliegvelden (METAR en TAF).

De beschikbare stations zijn de gele en rode punten op de kaart.

Ga met uw muis naar het station om de naam te zien.

Klik dan om waarnemingen en weersverwachtingen te zien.

kaart wijzigen: klik op de groene knoppen met een zwart kruis om in te zoomen, op de groene knop met een streepje om uit te zoomen of op de groene pijlen voor aangrenzende kaarten.


METAR-TAF: